x

New York Harbor Entrance - 15 Nm Se Of Breezy Point , Ny (44065) Wave Buoy

7:50am - Mon 25th Sep 2017 All times are EDT. -4 hours from GMT.

  • Sig Wave height 3.6ft
  • Swell Direction
  • Peak Period 11s
  • Average Period 10s
  • Wind
    2mph, 4mph gusts
  • Sea Temp 71°f
  • Air Temp 73°f
  • Sea Pressure 1017.5mb
  • New York Harbor Entrance - 15 Nm Se Of Breezy Point , Ny
  • New York Harbor Entrance - 15 Nm Se Of Breezy Point , Ny

More Historic Weather Station data

Upgrade to MSW Pro to gain access to the past 30 days of data for over 8000 Wavebouys and Weather Stations around the globe.

Join

Comparision Forecast

View Surf forecast
   
Mon 09/25 7:50am 3.5ft 11s 10s 2 4 mph 1017.5mb 71f 73f
6:50am 3.5ft 11s 10s 4 7 mph 1016.8mb 71f 72f
5:50am 3.5ft 10s 9s 4 4 mph 1016.2mb 71f 71f
4:50am 3.5ft 12s 9s 7 7 mph 1016mb 71f 71f
3:50am 3.5ft 11s 9s 2 4 mph 1015.7mb 71f 71f
2:50am 3.5ft 11s 9s  -  2 mph 1015.7mb 71f 71f
1:50am 3ft 11s 8s  -  2 mph 1016mb 71f 71f
Sun 09/24 11:50pm 3.5ft 12s 9s 4 4 mph 1016.7mb 72f 72f
10:50pm 3.5ft 12s 9s 4 4 mph 1017mb 72f 72f
9:50pm 3.5ft 10s 9s 7 7 mph 1017mb 72f 72f
8:50pm 3ft 11s 8s 7 9 mph 1016.9mb 72f 73f
7:50pm 3.5ft 11s 8s 7 9 mph 1016.4mb 72f 73f
6:50pm 3ft 11s 8s 7 9 mph 1015.9mb 73f 73f
5:50pm 3.5ft 11s 8s 7 7 mph 1016mb 73f 74f
4:50pm 3.5ft 13s 9s 7 7 mph 1015.8mb 74f 75f
3:50pm 3.5ft 12s 9s 7 7 mph 1016.1mb 74f 76f
2:50pm 3ft 11s 8s 4 4 mph 1016.8mb 75f 77f
1:50pm 3.5ft 11s 8s  -  0 mph 1017mb 74f 77f
12:50pm 3ft 11s 8s 4 4 mph 1017.4mb 73f 74f
11:50am 3ft 12s 8s 7 7 mph 1017.5mb 72f 73f
10:50am 3ft 12s 7s 4 4 mph 1017.4mb 71f 72f
9:50am 3.5ft 12s 8s 4 4 mph 1017.7mb 71f 71f
8:50am 3ft 11s 7s 7 9 mph 1017.8mb 71f 72f
7:50am 3.5ft 11s 8s 9 9 mph 1017.6mb 71f 72f
6:50am 3ft 11s 7s 4 7 mph 1017.2mb 71f 70f
5:50am 3.5ft 11s 8s 7 7 mph 1016.7mb 71f 70f
4:50am 3ft 11s 7s 2 4 mph 1016.6mb 71f 70f
3:50am 3.5ft 11s 8s 2 2 mph 1016.5mb 71f 70f
2:50am 3.5ft 11s 8s 2 4 mph 1016.4mb 71f 70f
1:50am 3.5ft 13s 8s 4 7 mph 1016.2mb 71f 72f
12:50am 4ft 13s 8s 4 7 mph 1016.5mb 71f 72f
Sat 09/23 11:50pm 3.5ft 13s 8s 4 4 mph 1016.3mb 71f 73f
10:50pm 4ft 12s 8s 2 4 mph 1016.4mb 71f 75f
9:50pm 4ft 13s 8s 2 4 mph 1016.2mb 71f 76f
8:50pm 3.5ft 13s 7s 4 4 mph 1016mb 72f 77f
7:50pm 3.5ft 12s 7s 2 2 mph 1015.7mb 72f 75f
6:50pm 3.5ft 14s 6s 2 4 mph 1015.3mb 72f 76f
5:50pm 3.5ft 11s 6s 2 4 mph 1015.2mb 72f 79f
4:50pm 3.5ft 11s 6s 2 4 mph 1015mb 72f 77f
3:50pm 3.5ft 11s 6s 7 7 mph 1015mb 71f 76f
2:50pm 3.5ft 11s 6s 9 11 mph 1015.5mb 71f 75f
1:50pm 3.5ft 11s 6s 11 11 mph 1015.7mb 71f 74f
12:50pm 3.5ft 9s 5s 13 16 mph 1016.1mb 71f 73f
11:50am 3.5ft 8s 5s 13 16 mph 1016.2mb 70f 72f
10:50am 3.5ft 9s 5s 9 11 mph 1016.2mb 70f 72f
9:50am 4ft 11s 5s 18 20 mph 1016mb 70f 71f
8:50am 3.5ft 11s 5s 16 20 mph 1015.3mb 70f 71f
7:50am 3.5ft 7s 5s 13 16 mph 1014.6mb 70f 71f
6:50am 4ft 8s 5s 13 16 mph 1014.6mb 70f 71f
5:50am 4.5ft 7s 5s 16 20 mph 1014.2mb 70f 71f
4:50am 4ft 7s 5s 18 22 mph 1013.8mb 70f 71f
3:50am 4ft 9s 5s 18 20 mph 1013.6mb 70f 71f
2:50am 4ft 8s 5s 16 18 mph 1013.7mb 70f 71f
1:50am 4ft 8s 5s 18 22 mph 1013.9mb 70f 71f
12:50am 4ft 10s 5s 16 20 mph 1013.6mb 70f 71f
Fri 09/22 11:50pm 4ft 9s 5s 16 18 mph 1013.7mb 70f 72f
10:50pm 4.5ft 10s 5s 16 18 mph 1013.5mb 70f 73f
9:50pm 4.5ft 8s 6s 18 20 mph 1013.1mb 70f 73f
8:50pm 5ft 9s 6s 18 20 mph 1012.8mb 70f 74f
7:50pm 5ft 10s 6s 13 16 mph 1012.7mb 70f 74f
6:50pm 5ft 10s 6s 13 18 mph 1012.3mb 70f 75f
5:50pm 4.5ft 9s 6s 13 16 mph 1012.4mb 70f 74f
4:50pm 5ft 10s 6s 16 20 mph 1012mb 70f 74f
3:50pm 5ft 10s 6s 16 20 mph 1012.3mb 70f 75f
2:50pm 5ft 10s 6s 18 20 mph 1012.6mb 70f 74f
1:50pm 5ft 10s 6s 18 20 mph 1013mb 70f 73f
12:50pm 5ft 10s 6s 18 20 mph 1013.6mb 70f 72f
11:50am 5ft 11s 6s 18 22 mph 1014.1mb 70f 71f
10:50am 5ft 10s 6s 20 25 mph 1014.3mb 70f 70f
9:50am 5ft 11s 6s 20 25 mph 1014.5mb 70f 69f
8:50am 6ft 10s  -  22 27 mph 1014.3mb 70f 68f
7:50am 5.5ft 10s 6s 22 27 mph 1014.3mb 70f 68f
6:50am 5.5ft 10s 6s 20 25 mph 1014.2mb 70f 69f
5:50am 6ft 10s 6s 20 22 mph 1014.1mb 70f 69f
4:50am 5.5ft 10s 6s 20 25 mph 1013.8mb 70f 70f
3:50am 5ft 10s 6s 22 27 mph 1013.5mb 70f 70f
2:50am 5ft 10s 6s 20 27 mph 1014.3mb 70f 71f
1:50am 4.5ft 10s 6s 18 22 mph 1014.7mb 70f 71f
12:50am 4ft 11s 6s 18 20 mph 1014.8mb 70f 72f
Thu 09/21 11:50pm 4.5ft 11s 7s 11 16 mph 1014.9mb 70f 72f
10:50pm 5ft 10s 8s 13 16 mph 1015.2mb 70f 73f
9:50pm 4ft 10s 7s 11 13 mph 1015.1mb 70f 73f
8:50pm 4.5ft 11s 7s 11 11 mph 1015.3mb 70f 73f
7:50pm 4.5ft 9s 6s 9 11 mph 1014.9mb 70f 73f
6:50pm 4.5ft 10s 7s 11 13 mph 1014.6mb 70f 74f
5:50pm 4ft 10s 7s 11 11 mph 1014.6mb 70f 74f
4:50pm 3.5ft 9s 6s 9 9 mph 1014.5mb 70f 74f
3:50pm 3.5ft 8s 6s 9 11 mph 1014.1mb 70f 74f
2:50pm 3.5ft 10s 6s 11 13 mph 1014.3mb 70f 73f
1:50pm 3ft 9s 6s 7 9 mph 1014.6mb 70f 73f
12:50pm 3ft 10s 5s 13 13 mph 1015mb 70f 73f